createdAt,value
2023-10-07T00:01:29.639Z,100.00
2023-10-07T00:06:36.150Z,100.00
2023-10-07T00:11:38.899Z,100.00
2023-10-07T00:16:41.610Z,100.00
2023-10-07T00:22:09.754Z,100.00
2023-10-07T00:27:39.278Z,100.00
2023-10-07T00:32:41.861Z,100.00
2023-10-07T00:37:45.733Z,100.00
2023-10-07T00:42:51.257Z,100.00
2023-10-07T00:47:54.646Z,100.00
2023-10-07T00:52:59.089Z,100.00
2023-10-07T00:58:07.943Z,100.00
2023-10-07T01:03:11.333Z,100.00
2023-10-07T01:08:14.572Z,100.00
2023-10-07T01:13:31.001Z,100.00
2023-10-07T01:18:40.188Z,100.00
2023-10-07T01:23:46.292Z,100.00
2023-10-07T01:28:51.022Z,100.00
2023-10-07T01:33:54.942Z,100.00
2023-10-07T01:39:02.668Z,100.00
2023-10-07T01:44:09.614Z,100.00
2023-10-07T01:49:13.280Z,100.00
2023-10-07T01:54:16.539Z,100.00
2023-10-07T01:59:19.545Z,100.00
2023-10-07T02:04:28.435Z,100.00
2023-10-07T02:09:36.659Z,100.00
2023-10-07T02:14:40.231Z,100.00
2023-10-07T02:19:45.256Z,100.00
2023-10-07T02:24:54.414Z,100.00
2023-10-07T02:29:58.838Z,100.00
2023-10-07T02:35:03.241Z,100.00
2023-10-07T02:40:26.218Z,100.00
2023-10-07T02:45:31.602Z,100.00
2023-10-07T02:50:34.175Z,100.00
2023-10-07T02:55:48.316Z,100.00
2023-10-07T03:00:53.280Z,100.00
2023-10-07T03:05:59.926Z,100.00
2023-10-07T03:11:05.642Z,100.00
2023-10-07T03:16:24.330Z,100.00
2023-10-07T03:21:36.850Z,100.00
2023-10-07T03:26:42.185Z,100.00
2023-10-07T03:31:47.745Z,100.00
2023-10-07T03:37:10.215Z,100.00
2023-10-07T03:42:16.161Z,100.00
2023-10-07T03:47:19.635Z,100.00
2023-10-07T03:52:22.569Z,100.00
2023-10-07T03:57:26.264Z,100.00
2023-10-07T04:02:29.871Z,100.00
2023-10-07T04:07:34.823Z,100.00
2023-10-07T04:12:39.043Z,100.00
2023-10-07T04:17:44.829Z,100.00
2023-10-07T04:23:02.735Z,100.00
2023-10-07T04:28:08.277Z,100.00
2023-10-07T04:33:12.158Z,100.00
2023-10-07T04:38:41.414Z,100.00
2023-10-07T04:43:46.611Z,100.00
2023-10-07T04:48:56.294Z,100.00
2023-10-07T04:54:05.148Z,100.00
2023-10-07T04:59:08.378Z,100.00
2023-10-07T05:04:17.272Z,100.00
2023-10-07T05:09:20.185Z,100.00
2023-10-07T05:14:25.989Z,100.00
2023-10-07T05:19:29.171Z,100.00
2023-10-07T05:24:31.740Z,100.00
2023-10-07T05:29:34.485Z,100.00
2023-10-07T05:34:37.667Z,100.00
2023-10-07T05:39:43.430Z,100.00
2023-10-07T05:44:45.846Z,100.00
2023-10-07T05:49:48.705Z,100.00
2023-10-07T05:54:54.347Z,100.00
2023-10-07T05:59:58.007Z,100.00
2023-10-07T06:05:00.632Z,100.00
2023-10-07T06:10:03.755Z,100.00
2023-10-07T06:15:09.953Z,100.00
2023-10-07T06:20:16.126Z,100.00
2023-10-07T06:25:18.601Z,100.00
2023-10-07T06:30:21.976Z,100.00
2023-10-07T06:35:26.380Z,100.00
2023-10-07T06:40:31.677Z,100.00
2023-10-07T06:45:37.575Z,100.00
2023-10-07T06:50:46.453Z,100.00
2023-10-07T06:55:56.121Z,100.00
2023-10-07T07:01:10.789Z,100.00
2023-10-07T07:06:21.511Z,100.00
2023-10-07T07:11:24.825Z,100.00
2023-10-07T07:16:27.424Z,100.00
2023-10-07T07:21:30.563Z,100.00
2023-10-07T07:26:33.050Z,100.00
2023-10-07T07:31:36.149Z,100.00
2023-10-07T07:36:38.617Z,100.00
2023-10-07T07:41:57.113Z,100.00
2023-10-07T07:47:04.950Z,100.00
2023-10-07T07:52:09.911Z,100.00
2023-10-07T07:57:13.747Z,100.00
2023-10-07T08:02:18.466Z,100.00
2023-10-07T08:07:29.265Z,100.00
2023-10-07T08:12:35.427Z,100.00
2023-10-07T08:17:38.551Z,100.00
2023-10-07T08:22:47.032Z,100.00
2023-10-07T08:27:51.237Z,100.00
2023-10-07T08:32:54.070Z,100.00
2023-10-07T08:37:57.768Z,100.00
2023-10-07T08:43:00.530Z,100.00
2023-10-07T08:48:16.748Z,100.00
2023-10-07T08:53:24.995Z,100.00
2023-10-07T08:58:34.164Z,100.00
2023-10-07T09:03:43.056Z,100.00
2023-10-07T09:08:46.406Z,100.00
2023-10-07T09:13:49.651Z,100.00
2023-10-07T09:18:57.474Z,100.00
2023-10-07T09:24:04.417Z,100.00
2023-10-07T09:29:16.773Z,100.00
2023-10-07T09:34:32.512Z,100.00
2023-10-07T09:39:35.915Z,100.00
2023-10-07T09:44:40.471Z,100.00
2023-10-07T09:49:45.864Z,100.00
2023-10-07T09:55:39.608Z,100.00
2023-10-07T10:01:30.018Z,100.00
2023-10-07T10:07:13.751Z,100.00
2023-10-07T10:12:29.190Z,100.00
2023-10-07T10:17:50.077Z,100.00
2023-10-07T10:22:54.184Z,100.00
2023-10-07T10:28:04.578Z,100.00
2023-10-07T10:33:22.200Z,100.00
2023-10-07T10:38:42.352Z,100.00
2023-10-07T10:43:44.958Z,100.00
2023-10-07T10:48:48.448Z,100.00
2023-10-07T10:53:51.822Z,100.00
2023-10-07T10:58:55.441Z,100.00
2023-10-07T11:03:58.423Z,100.00
2023-10-07T11:09:04.977Z,100.00
2023-10-07T11:14:11.529Z,100.00
2023-10-07T11:19:16.984Z,100.00
2023-10-07T11:24:28.376Z,100.00
2023-10-07T11:29:33.928Z,100.00
2023-10-07T11:34:47.095Z,100.00
2023-10-07T11:39:50.297Z,100.00
2023-10-07T11:44:57.363Z,100.00
2023-10-07T11:50:02.112Z,100.00
2023-10-07T11:55:09.046Z,100.00
2023-10-07T12:00:24.623Z,100.00
2023-10-07T12:05:31.408Z,100.00
2023-10-07T12:10:35.225Z,100.00
2023-10-07T12:15:49.316Z,100.00
2023-10-07T12:21:03.959Z,100.00
2023-10-07T12:26:16.833Z,100.00
2023-10-07T12:31:21.906Z,100.00
2023-10-07T12:36:24.504Z,100.00
2023-10-07T12:41:29.241Z,100.00
2023-10-07T12:46:32.495Z,100.00
2023-10-07T12:51:35.647Z,100.00
2023-10-07T12:56:47.765Z,100.00
2023-10-07T13:01:52.948Z,100.00
2023-10-07T13:07:04.674Z,100.00
2023-10-07T13:12:16.505Z,100.00
2023-10-07T13:17:22.001Z,100.00
2023-10-07T13:22:25.183Z,100.00
2023-10-07T13:27:27.888Z,100.00
2023-10-07T13:32:31.286Z,100.00
2023-10-07T13:37:34.043Z,100.00
2023-10-07T13:42:36.979Z,100.00
2023-10-07T13:47:39.526Z,100.00
2023-10-07T13:52:59.936Z,100.00
2023-10-07T13:58:04.005Z,100.00
2023-10-07T14:03:18.105Z,100.00
2023-10-07T14:08:22.108Z,100.00
2023-10-07T14:13:26.374Z,100.00
2023-10-07T14:18:29.564Z,100.00
2023-10-07T14:23:34.775Z,100.00
2023-10-07T14:28:40.833Z,100.00
2023-10-07T14:33:43.546Z,100.00
2023-10-07T14:38:46.842Z,100.00
2023-10-07T14:43:49.571Z,100.00
2023-10-07T14:48:52.209Z,100.00
2023-10-07T14:53:55.339Z,100.00
2023-10-07T14:58:58.788Z,100.00
2023-10-07T15:04:04.525Z,100.00
2023-10-07T15:09:09.585Z,100.00
2023-10-07T15:14:13.442Z,100.00
2023-10-07T15:19:20.380Z,100.00
2023-10-07T15:24:22.822Z,100.00
2023-10-07T15:29:29.914Z,100.00
2023-10-07T15:34:32.534Z,99.87
2023-10-07T15:39:36.178Z,99.29
2023-10-07T15:44:39.975Z,97.62
2023-10-07T15:49:46.103Z,98.29
2023-10-07T15:54:48.638Z,97.69
2023-10-07T15:59:52.942Z,98.54
2023-10-07T16:04:55.526Z,99.38
2023-10-07T16:10:01.965Z,99.64
2023-10-07T16:15:09.601Z,100.00
2023-10-07T16:20:12.386Z,100.00
2023-10-07T16:25:16.207Z,100.00
2023-10-07T16:30:19.585Z,100.00
2023-10-07T16:35:22.081Z,100.00
2023-10-07T16:40:25.075Z,100.00
2023-10-07T16:45:28.189Z,100.00
2023-10-07T16:50:33.173Z,100.00
2023-10-07T16:55:37.528Z,100.00
2023-10-07T17:00:42.390Z,100.00
2023-10-07T17:05:44.959Z,100.00
2023-10-07T17:10:50.217Z,100.00
2023-10-07T17:15:54.443Z,100.00
2023-10-07T17:21:00.933Z,99.94
2023-10-07T17:26:07.323Z,99.28
2023-10-07T17:31:12.603Z,94.97
2023-10-07T17:36:15.404Z,93.02
2023-10-07T17:41:22.205Z,92.01
2023-10-07T17:46:29.371Z,89.48
2023-10-07T17:51:46.404Z,79.96
2023-10-07T17:56:56.722Z,80.69
2023-10-07T18:02:02.293Z,79.78
2023-10-07T18:07:11.250Z,80.02
2023-10-07T18:12:16.594Z,79.75
2023-10-07T18:17:19.690Z,75.47
2023-10-07T18:22:22.221Z,75.18
2023-10-07T18:27:24.972Z,74.13
2023-10-07T18:32:27.699Z,75.20
2023-10-07T18:37:30.621Z,75.59
2023-10-07T18:42:34.272Z,74.39
2023-10-07T18:47:37.795Z,73.52
2023-10-07T18:52:40.362Z,72.93
2023-10-07T18:57:44.734Z,71.39
2023-10-07T19:02:47.461Z,71.30
2023-10-07T19:07:50.491Z,71.60
2023-10-07T19:12:53.118Z,71.72
2023-10-07T19:17:56.125Z,71.46
2023-10-07T19:22:59.962Z,71.13
2023-10-07T19:28:02.524Z,73.12
2023-10-07T19:33:05.680Z,74.52
2023-10-07T19:38:09.443Z,75.88
2023-10-07T19:43:37.969Z,74.50
2023-10-07T19:48:40.551Z,75.32
2023-10-07T19:53:45.492Z,79.06
2023-10-07T19:58:48.179Z,84.37
2023-10-07T20:03:55.338Z,84.11
2023-10-07T20:09:00.478Z,84.66
2023-10-07T20:14:03.781Z,85.12
2023-10-07T20:19:12.444Z,85.64
2023-10-07T20:24:15.603Z,86.47
2023-10-07T20:29:18.623Z,85.58
2023-10-07T20:34:38.287Z,85.88
2023-10-07T20:39:44.043Z,87.47
2023-10-07T20:44:47.321Z,88.62
2023-10-07T20:49:53.091Z,89.80
2023-10-07T20:55:01.644Z,90.19
2023-10-07T21:00:06.378Z,90.74
2023-10-07T21:05:09.185Z,90.73
2023-10-07T21:10:15.370Z,91.03
2023-10-07T21:15:18.135Z,92.47
2023-10-07T21:20:24.421Z,92.61
2023-10-07T21:25:27.162Z,93.73
2023-10-07T21:30:30.263Z,93.12
2023-10-07T21:35:33.884Z,93.20
2023-10-07T21:40:40.969Z,93.56
2023-10-07T21:45:43.805Z,94.33
2023-10-07T21:50:46.958Z,93.44
2023-10-07T21:55:50.186Z,91.99
2023-10-07T22:00:59.064Z,91.53
2023-10-07T22:06:02.894Z,91.78
2023-10-07T22:11:06.121Z,90.45
2023-10-07T22:16:09.741Z,90.90
2023-10-07T22:21:13.375Z,91.41
2023-10-07T22:26:20.837Z,91.77
2023-10-07T22:31:24.306Z,93.18
2023-10-07T22:36:32.982Z,93.34
2023-10-07T22:41:39.768Z,94.33
2023-10-07T22:46:43.738Z,95.75
2023-10-07T22:51:48.997Z,94.80
2023-10-07T22:56:51.618Z,93.54
2023-10-07T23:01:59.797Z,93.12
2023-10-07T23:07:13.727Z,93.74
2023-10-07T23:12:25.226Z,94.20
2023-10-07T23:17:32.883Z,95.62
2023-10-07T23:22:42.008Z,96.57
2023-10-07T23:27:45.900Z,97.87
2023-10-07T23:32:49.662Z,99.84
2023-10-07T23:38:19.999Z,100.00
2023-10-07T23:43:26.403Z,100.00
2023-10-07T23:48:29.757Z,100.00
2023-10-07T23:53:33.387Z,100.00
2023-10-07T23:58:52.972Z,100.00
